Time;durP1;ratioP1;P1;durP2;ratioP2;P2;SDS_P1;SDS_P2;PMS_P1;PMS_P2;Temp;Humidity;BMP_temperature;BMP_pressure;BME280_temperature;BME280_humidity;BME280_pressure;Samples;Min_cycle;Max_cycle;Signal;HPM_P1;HPM_P2
2022/01/05 00:02:12;;;;;;;;;3.00;2.00;;;;;7.30;56.29;100267.97;4972438;28;45583;-83
2022/01/05 00:04:38;;;;;;;;;2.00;2.00;;;;;7.22;56.37;100267.06;4974212;28;45709;-83
2022/01/05 00:07:04;;;;;;;;;2.67;2.67;;;;;7.25;57.13;100277.59;4974844;28;45832;-83
2022/01/05 00:09:35;;;;;;;;;3.00;1.67;;;;;7.23;56.29;100293.31;4973161;28;45538;-82
2022/01/05 00:12:07;;;;;;;;;4.00;1.67;;;;;7.13;55.63;100295.53;4957476;28;45392;-84
2022/01/05 00:14:32;;;;;;;;;1.00;1.00;;;;;7.07;55.78;100288.16;4956404;28;46278;-82
2022/01/05 00:17:04;;;;;;;;;3.00;1.00;;;;;7.03;56.83;100289.59;4956140;28;48145;-83
2022/01/05 00:19:32;;;;;;;;;2.00;2.00;;;;;6.97;55.73;100293.94;4975422;28;45476;-81
2022/01/05 00:22:01;;;;;;;;;1.33;1.33;;;;;6.71;55.73;100265.41;4979607;28;45443;-82
2022/01/05 00:24:36;;;;;;;;;0.67;0.67;;;;;6.85;56.24;100290.06;4992890;28;45804;-83
2022/01/05 00:27:08;;;;;;;;;1.67;1.67;;;;;6.80;56.38;100296.09;4987767;28;45656;-82
2022/01/05 00:29:36;;;;;;;;;2.33;1.00;;;;;6.78;55.75;100306.38;4952935;28;45534;-82
2022/01/05 00:32:11;;;;;;;;;1.33;1.33;;;;;6.70;56.18;100298.31;4956509;28;44895;-82
2022/01/05 00:34:37;;;;;;;;;2.33;1.00;;;;;6.69;55.58;100305.66;4974202;28;47110;-81
2022/01/05 00:37:06;;;;;;;;;2.67;1.33;;;;;6.65;55.76;100300.78;4955995;28;47329;-82
2022/01/05 00:39:32;;;;;;;;;3.00;2.33;;;;;6.51;56.11;100287.03;4974936;28;45394;-83
2022/01/05 00:41:57;;;;;;;;;1.00;1.00;;;;;6.37;56.66;100274.28;4975558;28;45580;-83
2022/01/05 00:44:33;;;;;;;;;3.00;2.00;;;;;6.35;56.31;100279.09;4971747;28;46007;-83
2022/01/05 00:47:15;;;;;;;;;1.00;1.00;;;;;6.52;56.25;100317.81;4939938;28;47002;-82
2022/01/05 00:49:50;;;;;;;;;1.33;1.00;;;;;6.46;56.46;100311.25;4955040;28;45384;-82
2022/01/05 00:52:24;;;;;;;;;2.00;2.00;;;;;6.45;57.46;100312.31;4978218;28;45533;-81
2022/01/05 00:54:56;;;;;;;;;1.00;1.00;;;;;6.40;56.79;100316.66;4974066;28;46154;-81
2022/01/05 00:57:27;;;;;;;;;2.33;1.33;;;;;6.30;57.28;100311.50;4957777;28;47846;-84
2022/01/05 00:59:58;;;;;;;;;3.33;2.00;;;;;6.15;56.93;100293.31;4962777;28;45556;-84
2022/01/05 01:02:27;;;;;;;;;1.00;1.00;;;;;6.09;57.28;100293.22;4994707;28;45732;-81
2022/01/05 01:05:16;;;;;;;;;3.00;1.67;;;;;6.28;57.00;100335.34;4984474;28;46414;-83
2022/01/05 01:07:44;;;;;;;;;1.67;1.67;;;;;6.26;58.02;100332.00;4950357;28;46746;-82
2022/01/05 01:10:16;;;;;;;;;2.33;2.33;;;;;5.90;58.45;100275.56;4960928;28;45727;-82
2022/01/05 01:12:42;;;;;;;;;2.67;1.00;;;;;6.13;57.39;100310.88;4967973;28;44801;-83
2022/01/05 01:15:13;;;;;;;;;2.33;2.00;;;;;6.22;56.87;100344.28;4985111;28;45923;-82
2022/01/05 01:17:38;;;;;;;;;2.00;1.67;;;;;5.96;56.42;100316.50;4965238;28;46209;-82
2022/01/05 01:20:05;;;;;;;;;1.33;1.33;;;;;6.20;56.59;100349.94;4971678;28;45428;-83
2022/01/05 01:22:34;;;;;;;;;1.00;1.00;;;;;6.16;56.43;100363.06;4955521;28;45400;-82
2022/01/05 01:25:06;;;;;;;;;3.00;3.00;;;;;6.08;57.09;100357.72;4975403;28;45865;-81
2022/01/05 01:27:40;;;;;;;;;3.00;1.67;;;;;6.13;57.67;100371.59;4958376;28;46434;-81
2022/01/05 01:30:11;;;;;;;;;1.00;1.00;;;;;6.12;57.73;100367.22;4976044;28;45333;-83
2022/01/05 01:32:37;;;;;;;;;1.00;1.00;;;;;5.74;57.53;100315.56;4977365;28;45318;-81
2022/01/05 01:35:05;;;;;;;;;2.00;2.00;;;;;6.09;57.62;100374.91;4958026;28;47252;-80
2022/01/05 01:37:33;;;;;;;;;2.00;2.00;;;;;5.76;58.07;100320.81;4977503;28;46358;-81
2022/01/05 01:39:59;;;;;;;;;2.67;1.00;;;;;6.03;58.57;100386.53;4977164;28;45817;-82
2022/01/05 01:42:24;;;;;;;;;1.00;1.00;;;;;5.97;58.43;100371.81;4976623;28;45746;-81
2022/01/05 01:44:50;;;;;;;;;3.00;2.00;;;;;5.88;58.37;100365.56;4976929;28;46160;-83
2022/01/05 01:47:18;;;;;;;;;2.00;2.00;;;;;6.01;58.77;100400.34;4975693;28;46668;-82
2022/01/05 01:49:47;;;;;;;;;3.00;1.33;;;;;5.62;58.85;100347.84;4978935;28;45734;-81
2022/01/05 01:52:13;;;;;;;;;8.00;1.33;;;;;5.75;58.81;100362.66;4972613;28;45512;-81
2022/01/05 01:54:39;;;;;;;;;3.67;2.00;;;;;5.69;58.26;100356.13;4956757;28;46065;-81
2022/01/05 01:57:08;;;;;;;;;2.00;2.00;;;;;5.95;58.71;100403.78;4964146;28;47270;-81
2022/01/05 01:59:35;;;;;;;;;3.00;1.00;;;;;5.96;58.97;100419.09;4990264;28;45504;-83
2022/01/05 02:02:01;;;;;;;;;2.00;1.67;;;;;5.92;58.61;100429.50;4961429;28;45552;-82
2022/01/05 02:04:30;;;;;;;;;1.00;1.00;;;;;5.93;58.78;100424.91;4979190;28;45741;-83
2022/01/05 02:06:58;;;;;;;;;2.67;1.00;;;;;5.69;58.40;100399.66;4961104;28;46355;-82
2022/01/05 02:09:23;;;;;;;;;1.67;1.67;;;;;5.74;58.63;100409.97;4975707;28;45836;-82
2022/01/05 02:11:57;;;;;;;;;1.00;1.00;;;;;5.88;58.85;100440.94;4959612;28;45543;-82
2022/01/05 02:14:23;;;;;;;;;4.33;2.33;;;;;5.61;58.95;100400.56;4959594;28;46242;-81
2022/01/05 02:16:55;;;;;;;;;1.00;1.00;;;;;5.84;58.68;100435.88;4974089;28;45579;-82
2022/01/05 02:19:27;;;;;;;;;5.67;3.67;;;;;5.90;58.58;100444.31;4957359;28;45538;-81
2022/01/05 02:21:53;;;;;;;;;3.00;1.00;;;;;5.78;57.96;100439.34;4959035;28;45788;-80
2022/01/05 02:24:18;;;;;;;;;2.67;1.67;;;;;5.80;58.66;100439.97;4983548;28;45563;-81
2022/01/05 02:26:53;;;;;;;;;2.67;2.33;;;;;5.74;58.49;100437.19;4966546;28;47002;-82
2022/01/05 02:29:22;;;;;;;;;4.00;2.00;;;;;5.68;58.51;100421.59;4967498;28;45375;-81
2022/01/05 02:31:48;;;;;;;;;1.00;1.00;;;;;5.81;58.19;100441.69;4974391;28;45567;-82
2022/01/05 02:34:17;;;;;;;;;2.00;2.00;;;;;5.73;58.58;100436.31;4980840;28;45543;-82
2022/01/05 02:36:43;;;;;;;;;2.67;2.67;;;;;5.80;58.51;100447.31;4973430;28;48168;-81
2022/01/05 02:39:12;;;;;;;;;2.00;2.00;;;;;5.73;58.86;100449.91;4980609;28;45390;-83
2022/01/05 02:41:37;;;;;;;;;5.00;2.00;;;;;5.65;58.07;100439.13;4978487;28;45832;-80
2022/01/05 02:44:06;;;;;;;;;2.33;2.33;;;;;5.70;58.23;100447.56;4991302;28;46711;-80
2022/01/05 02:46:32;;;;;;;;;2.00;2.00;;;;;5.40;57.52;100403.97;4974559;28;47196;-81
2022/01/05 02:48:58;;;;;;;;;2.67;2.33;;;;;5.59;58.18;100431.69;4977190;28;45358;-80
2022/01/05 02:51:24;;;;;;;;;4.67;2.00;;;;;5.62;57.92;100458.53;4977252;28;45477;-82
2022/01/05 02:53:50;;;;;;;;;3.67;2.00;;;;;5.65;57.74;100467.16;4961795;28;45354;-80
2022/01/05 02:56:16;;;;;;;;;1.00;1.00;;;;;5.63;58.16;100462.97;4978625;28;46189;-82
2022/01/05 02:58:41;;;;;;;;;2.67;1.00;;;;;5.58;57.90;100459.94;4959952;28;45353;-82
2022/01/05 03:01:07;;;;;;;;;2.33;1.33;;;;;5.59;58.07;100467.06;4975408;28;45487;-79
2022/01/05 03:03:33;;;;;;;;;2.33;1.00;;;;;5.51;58.50;100465.25;4975685;28;45552;-81
2022/01/05 03:06:01;;;;;;;;;1.00;1.00;;;;;5.58;57.88;100474.34;4976770;28;45770;-82
2022/01/05 03:08:27;;;;;;;;;3.00;2.00;;;;;5.57;58.25;100469.09;4975461;28;45806;-83
2022/01/05 03:10:55;;;;;;;;;10.67;2.33;;;;;5.54;58.07;100469.47;4977129;28;45414;-81
2022/01/05 03:13:26;;;;;;;;;6.33;3.00;;;;;5.57;57.45;100483.56;4959883;28;45985;-81
2022/01/05 03:15:52;;;;;;;;;3.00;1.33;;;;;5.58;57.40;100487.97;4976786;28;45884;-80
2022/01/05 03:18:18;;;;;;;;;1.00;1.00;;;;;5.46;57.71;100470.38;4975062;28;45427;-83
2022/01/05 03:20:47;;;;;;;;;2.00;2.00;;;;;5.58;57.45;100492.56;4976963;28;45509;-80
2022/01/05 03:23:13;;;;;;;;;1.00;1.00;;;;;5.57;57.30;100504.47;4961220;28;46431;-80
2022/01/05 03:25:40;;;;;;;;;1.33;1.33;;;;;5.54;58.10;100496.66;4975262;28;46074;-81
2022/01/05 03:28:05;;;;;;;;;2.00;2.00;;;;;5.50;58.40;100495.38;4978008;28;45558;-81
2022/01/05 03:30:33;;;;;;;;;2.67;2.00;;;;;5.46;57.28;100490.28;4961309;28;45704;-81
2022/01/05 03:33:09;;;;;;;;;1.00;1.00;;;;;5.56;57.76;100510.97;4955994;28;46344;-79
2022/01/05 03:35:41;;;;;;;;;3.00;1.67;;;;;5.55;57.74;100514.69;4974116;28;46484;-80
2022/01/05 03:38:07;;;;;;;;;1.00;1.00;;;;;5.46;57.96;100514.78;4972771;28;45430;-80
2022/01/05 03:40:34;;;;;;;;;4.00;3.00;;;;;5.34;57.57;100491.72;4976086;28;45438;-81
2022/01/05 03:43:01;;;;;;;;;2.33;2.00;;;;;5.47;58.01;100516.44;4975937;28;46947;-82
2022/01/05 03:45:29;;;;;;;;;4.67;3.00;;;;;5.44;58.30;100522.25;4978161;28;46416;-81
2022/01/05 03:47:55;;;;;;;;;2.00;1.67;;;;;5.38;57.80;100513.97;4955510;28;45418;-81
2022/01/05 03:50:20;;;;;;;;;2.67;2.00;;;;;5.40;58.35;100529.06;4978585;28;45524;-82
2022/01/05 03:52:46;;;;;;;;;3.67;0.00;;;;;5.38;57.81;100530.28;4980052;28;46444;-82
2022/01/05 03:55:11;;;;;;;;;3.33;1.33;;;;;5.29;58.12;100522.16;4974871;28;46882;-79
2022/01/05 03:57:40;;;;;;;;;1.67;1.67;;;;;5.46;57.44;100546.53;4975762;28;45738;-81
2022/01/05 04:00:06;;;;;;;;;1.00;1.00;;;;;5.47;57.41;100559.97;4978812;28;45753;-81
2022/01/05 04:02:32;;;;;;;;;4.00;1.00;;;;;5.42;57.89;100553.34;4973139;28;46163;-81
2022/01/05 04:04:58;;;;;;;;;2.67;2.67;;;;;5.44;57.44;100559.47;4976036;28;46207;-81
2022/01/05 04:07:23;;;;;;;;;3.00;2.00;;;;;5.27;57.39;100523.41;4975709;28;45697;-84
2022/01/05 04:09:51;;;;;;;;;2.33;2.33;;;;;5.16;57.81;100511.03;4978161;28;45373;-84
2022/01/05 04:12:17;;;;;;;;;1.00;1.00;;;;;5.25;57.40;100531.72;4976364;28;45953;-82
2022/01/05 04:14:45;;;;;;;;;2.33;1.33;;;;;5.35;57.80;100553.25;4973689;28;46977;-80
2022/01/05 04:17:14;;;;;;;;;3.00;3.00;;;;;5.30;57.93;100544.78;4978134;28;45526;-82
2022/01/05 04:19:39;;;;;;;;;2.00;1.00;;;;;5.36;58.01;100559.53;4986688;28;45445;-82
2022/01/05 04:22:05;;;;;;;;;2.33;1.00;;;;;5.28;58.59;100549.53;4974676;28;46078;-83
2022/01/05 04:24:31;;;;;;;;;0.00;0.00;;;;;5.22;58.19;100542.94;4978377;28;47425;-82
2022/01/05 04:26:59;;;;;;;;;1.00;1.00;;;;;5.36;58.56;100571.25;4977539;28;45818;-85
2022/01/05 04:29:28;;;;;;;;;3.00;1.00;;;;;5.34;58.27;100572.47;4957853;28;45472;-81
2022/01/05 04:31:53;;;;;;;;;14.67;7.33;;;;;5.26;57.79;100559.75;4975170;28;45593;-81
2022/01/05 04:34:19;;;;;;;;;3.33;3.33;;;;;5.23;58.01;100551.97;4957423;28;46996;-81
2022/01/05 04:36:45;;;;;;;;;1.00;1.00;;;;;5.23;57.99;100549.25;4974552;28;45540;-85
2022/01/05 04:39:10;;;;;;;;;2.00;2.00;;;;;5.23;58.23;100554.69;4976663;28;45890;-82
2022/01/05 04:41:36;;;;;;;;;3.67;2.00;;;;;5.33;58.35;100581.63;4961489;28;46059;-81
2022/01/05 04:44:04;;;;;;;;;3.00;3.00;;;;;5.35;57.70;100580.44;4997850;28;45502;-80
2022/01/05 04:46:30;;;;;;;;;3.00;2.00;;;;;5.35;58.93;100588.59;4977772;28;45373;-82
2022/01/05 04:48:56;;;;;;;;;4.00;3.00;;;;;5.33;59.24;100597.94;4994110;28;45471;-81
2022/01/05 04:51:21;;;;;;;;;2.00;2.00;;;;;5.34;59.00;100596.94;4993425;28;46595;-83
2022/01/05 04:53:51;;;;;;;;;2.00;1.00;;;;;5.24;59.02;100580.81;4973845;28;46540;-81
2022/01/05 04:56:17;;;;;;;;;2.00;1.00;;;;;5.26;58.44;100582.34;4971594;28;45449;-82
2022/01/05 04:58:42;;;;;;;;;3.00;2.00;;;;;5.29;59.10;100590.16;4970503;28;45889;-81
2022/01/05 05:01:11;;;;;;;;;3.00;1.00;;;;;5.25;58.49;100591.53;4967790;28;45769;-82
2022/01/05 05:03:37;;;;;;;;;3.33;3.00;;;;;5.34;59.52;100608.66;4975151;28;45465;-80
2022/01/05 05:06:06;;;;;;;;;2.67;2.33;;;;;5.24;58.27;100592.56;4963774;28;45840;-81
2022/01/05 05:08:34;;;;;;;;;2.67;1.00;;;;;5.32;58.93;100613.44;4957586;28;45501;-81
2022/01/05 05:11:00;;;;;;;;;2.67;1.00;;;;;5.18;59.09;100581.53;4955262;28;46317;-80
2022/01/05 05:13:29;;;;;;;;;4.00;1.67;;;;;5.27;58.79;100608.53;4968194;28;45723;-82
2022/01/05 05:15:57;;;;;;;;;4.00;2.67;;;;;5.32;57.97;100618.88;4963644;28;45406;-82
2022/01/05 05:18:22;;;;;;;;;1.00;1.00;;;;;5.24;59.09;100627.91;4963491;28;45347;-82
2022/01/05 05:20:48;;;;;;;;;3.67;1.00;;;;;5.25;58.07;100616.00;4967635;28;45809;-82
2022/01/05 05:23:17;;;;;;;;;2.00;1.67;;;;;5.35;58.69;100639.44;4948575;28;45536;-80
2022/01/05 05:25:46;;;;;;;;;4.00;1.00;;;;;5.26;58.27;100628.56;4966367;28;45830;-81
2022/01/05 05:28:11;;;;;;;;;1.33;1.00;;;;;5.22;58.31;100629.94;4962486;28;45171;-81
2022/01/05 05:30:37;;;;;;;;;0.33;0.33;;;;;5.23;58.28;100630.81;4964629;28;46639;-77
2022/01/05 05:33:03;;;;;;;;;2.67;2.00;;;;;5.30;57.69;100637.25;4979676;28;46306;-82
2022/01/05 05:35:29;;;;;;;;;2.00;2.00;;;;;5.32;58.35;100651.50;4981277;28;45513;-79
2022/01/05 05:37:56;;;;;;;;;3.67;1.33;;;;;5.30;58.21;100659.84;4980706;28;45430;-79
2022/01/05 05:40:22;;;;;;;;;3.00;1.00;;;;;5.26;58.49;100660.38;4963133;28;46068;-80
2022/01/05 05:42:48;;;;;;;;;2.00;1.67;;;;;5.26;57.86;100663.09;4981610;28;47367;-78
2022/01/05 05:45:14;;;;;;;;;1.67;1.67;;;;;5.27;58.14;100662.91;4983703;28;45373;-77
2022/01/05 05:47:42;;;;;;;;;4.67;2.33;;;;;5.26;58.42;100674.78;4980786;28;45484;-76
2022/01/05 05:50:11;;;;;;;;;1.33;1.33;;;;;5.21;58.52;100670.91;4981346;28;46922;-80
2022/01/05 05:52:36;;;;;;;;;2.00;2.00;;;;;5.21;58.81;100671.78;4990781;28;46702;-82
2022/01/05 05:55:05;;;;;;;;;2.00;2.00;;;;;5.18;58.61;100660.38;4995549;28;45275;-80
2022/01/05 05:57:30;;;;;;;;;4.00;1.00;;;;;5.11;59.52;100660.25;4979487;28;45881;-79
2022/01/05 05:59:56;;;;;;;;;1.33;1.00;;;;;5.15;59.37;100663.44;4979312;28;45509;-80
2022/01/05 06:02:21;;;;;;;;;4.33;2.33;;;;;5.07;58.57;100659.72;4978271;28;45864;-79
2022/01/05 06:04:47;;;;;;;;;1.00;1.00;;;;;5.10;58.75;100672.13;4977772;28;45544;-82
2022/01/05 06:07:12;;;;;;;;;1.67;1.00;;;;;5.10;59.38;100683.88;4984386;28;45978;-78
2022/01/05 06:09:37;;;;;;;;;2.33;1.00;;;;;5.08;58.78;100683.19;4982504;28;45461;-81
2022/01/05 06:12:04;;;;;;;;;4.00;2.00;;;;;5.10;59.31;100681.16;4986893;28;45884;-82
2022/01/05 06:14:32;;;;;;;;;3.00;2.00;;;;;5.11;60.14;100691.00;4986107;28;45401;-82
2022/01/05 06:16:58;;;;;;;;;2.00;1.00;;;;;5.16;58.84;100695.06;4971146;28;45374;-79
2022/01/05 06:19:23;;;;;;;;;2.00;2.00;;;;;5.18;59.80;100703.88;4986155;28;45428;-79
2022/01/05 06:21:50;;;;;;;;;1.67;1.33;;;;;5.21;59.09;100698.97;4965597;28;46449;-83
2022/01/05 06:24:22;;;;;;;;;1.00;1.00;;;;;5.22;59.39;100691.63;4970026;28;45864;-78
2022/01/05 06:26:52;;;;;;;;;2.00;2.00;;;;;5.23;59.42;100699.63;4982575;28;46731;-79
2022/01/05 06:29:18;;;;;;;;;3.00;1.33;;;;;5.18;59.21;100687.56;4980826;28;45457;-78
2022/01/05 06:31:44;;;;;;;;;1.00;1.00;;;;;5.23;59.01;100690.63;4962450;28;47305;-76
2022/01/05 06:34:10;;;;;;;;;3.00;2.00;;;;;5.26;59.75;100712.88;4960582;28;45524;-80
2022/01/05 06:36:35;;;;;;;;;3.33;2.00;;;;;5.26;58.90;100707.44;4964434;28;44835;-78
2022/01/05 06:39:02;;;;;;;;;2.33;2.00;;;;;5.33;58.85;100706.72;4985546;28;45548;-79
2022/01/05 06:41:28;;;;;;;;;3.00;2.00;;;;;5.33;59.50;100702.16;4983830;28;45786;-72
2022/01/05 06:43:53;;;;;;;;;2.00;1.67;;;;;5.34;59.21;100711.97;4986811;28;45638;-77
2022/01/05 06:46:19;;;;;;;;;0.67;0.67;;;;;5.36;59.05;100709.94;4986180;28;45862;-72
2022/01/05 06:48:44;;;;;;;;;1.00;1.00;;;;;5.28;59.51;100712.69;4972186;28;45916;-72
2022/01/05 06:51:09;;;;;;;;;2.00;2.00;;;;;5.33;60.27;100723.03;4977884;28;45506;-75
2022/01/05 06:53:35;;;;;;;;;1.00;1.00;;;;;5.29;60.40;100723.38;4985486;28;45507;-77
2022/01/05 06:56:00;;;;;;;;;3.00;2.00;;;;;5.31;60.30;100723.22;4982287;28;45423;-70
2022/01/05 06:58:26;;;;;;;;;4.00;2.67;;;;;5.28;60.08;100716.28;4976444;28;45505;-69
2022/01/05 07:00:51;;;;;;;;;2.33;1.00;;;;;5.29;60.06;100728.81;4981567;28;45420;-71
2022/01/05 07:03:16;;;;;;;;;2.00;2.00;;;;;5.28;59.88;100729.88;4981836;28;44817;-72
2022/01/05 07:05:45;;;;;;;;;2.00;1.00;;;;;5.22;59.94;100732.41;4973174;28;45719;-72
2022/01/05 07:08:10;;;;;;;;;2.00;2.00;;;;;5.26;61.13;100739.22;4985034;28;45487;-76
2022/01/05 07:10:36;;;;;;;;;3.00;1.00;;;;;5.24;60.35;100733.09;4988200;28;45774;-76
2022/01/05 07:13:02;;;;;;;;;1.33;1.33;;;;;5.27;61.44;100740.91;4989444;28;45460;-76
2022/01/05 07:15:28;;;;;;;;;3.67;1.00;;;;;5.29;61.34;100739.69;4988866;28;46005;-77
2022/01/05 07:17:53;;;;;;;;;3.33;1.33;;;;;5.27;61.15;100735.47;4991844;28;45487;-79
2022/01/05 07:20:19;;;;;;;;;0.00;0.00;;;;;5.33;60.28;100747.50;4975746;28;46751;-78
2022/01/05 07:22:45;;;;;;;;;4.00;2.00;;;;;5.35;61.23;100750.91;4967844;28;45447;-77
2022/01/05 07:25:10;;;;;;;;;1.33;1.33;;;;;5.34;60.80;100746.50;4988268;28;45671;-81
2022/01/05 07:27:37;;;;;;;;;1.67;1.00;;;;;5.28;60.73;100751.63;4994195;28;45345;-79
2022/01/05 07:30:04;;;;;;;;;5.33;2.00;;;;;5.33;61.38;100766.53;4992832;28;46326;-79
2022/01/05 07:32:30;;;;;;;;;1.33;1.33;;;;;5.37;61.36;100776.91;4986607;28;45445;-76
2022/01/05 07:34:56;;;;;;;;;2.00;2.00;;;;;5.38;60.56;100786.75;4970264;28;45449;-79
2022/01/05 07:37:22;;;;;;;;;3.00;3.00;;;;;5.37;60.09;100782.34;4985528;28;45382;-78
2022/01/05 07:39:47;;;;;;;;;3.00;2.00;;;;;5.33;59.90;100781.00;4959206;28;46816;-79
2022/01/05 07:42:13;;;;;;;;;4.00;2.00;;;;;5.40;59.82;100786.59;4973498;28;45449;-73
2022/01/05 07:44:39;;;;;;;;;3.00;1.00;;;;;5.43;59.71;100783.50;4980909;28;45971;-72
2022/01/05 07:47:05;;;;;;;;;2.00;1.00;;;;;5.46;59.64;100784.03;4960395;28;46384;-70
2022/01/05 07:49:31;;;;;;;;;6.00;2.33;;;;;5.47;60.43;100785.72;4977592;28;45508;-79
2022/01/05 07:51:56;;;;;;;;;2.33;2.00;;;;;5.54;60.17;100793.16;4979492;28;44823;-80
2022/01/05 07:54:22;;;;;;;;;2.67;2.00;;;;;5.54;60.43;100785.00;4987366;28;45405;-80
2022/01/05 07:56:47;;;;;;;;;3.00;1.00;;;;;5.59;59.83;100796.22;4987205;28;45660;-78
2022/01/05 07:59:13;;;;;;;;;0.67;0.67;;;;;5.58;60.07;100792.63;4976998;28;46148;-79
2022/01/05 08:01:38;;;;;;;;;4.00;3.00;;;;;5.57;59.60;100796.41;4989645;28;45639;-77
2022/01/05 08:04:04;;;;;;;;;3.00;2.00;;;;;5.61;60.02;100799.63;4973284;28;45618;-75
2022/01/05 08:06:30;;;;;;;;;2.00;2.00;;;;;5.60;59.96;100814.25;4973484;28;45767;-76
2022/01/05 08:08:56;;;;;;;;;2.00;2.00;;;;;5.58;59.65;100808.13;4973614;28;45466;-79
2022/01/05 08:11:21;;;;;;;;;2.00;2.00;;;;;5.59;59.85;100809.84;4970419;28;45981;-77
2022/01/05 08:13:47;;;;;;;;;2.00;2.00;;;;;5.59;60.61;100818.00;4971992;28;45790;-73
2022/01/05 08:16:14;;;;;;;;;5.00;2.67;;;;;5.59;60.68;100821.56;4968365;28;45594;-76
2022/01/05 08:18:39;;;;;;;;;4.00;4.00;;;;;5.59;59.74;100816.13;4970695;28;45937;-73
2022/01/05 08:21:05;;;;;;;;;3.33;3.33;;;;;5.57;60.38;100823.59;4951090;28;45658;-74
2022/01/05 08:23:31;;;;;;;;;3.67;2.67;;;;;5.70;60.16;100833.94;4975405;28;45910;-75
2022/01/05 08:25:57;;;;;;;;;2.67;2.00;;;;;5.74;59.19;100845.34;4963315;28;46239;-80
2022/01/05 08:28:28;;;;;;;;;12.00;10.33;;;;;5.73;60.45;100833.56;4967241;28;45624;-78
2022/01/05 08:30:54;;;;;;;;;4.33;3.00;;;;;5.77;59.89;100834.94;4968112;28;45634;-82
2022/01/05 08:33:19;;;;;;;;;6.33;3.00;;;;;5.87;59.78;100844.75;4959150;28;45757;-77
2022/01/05 08:35:46;;;;;;;;;16.00;15.00;;;;;5.91;60.04;100846.13;4973287;28;45873;-74
2022/01/05 08:41:38;;;;;;;;;2.33;2.00;;;;;5.82;59.99;100808.06;4940357;28;45464;-73
2022/01/05 08:44:04;;;;;;;;;8.00;5.67;;;;;6.12;59.34;100842.81;4971938;28;45832;-79
2022/01/05 08:46:29;;;;;;;;;19.67;16.67;;;;;6.21;60.20;100855.38;4972211;28;46093;-78
2022/01/05 08:49:00;;;;;;;;;9.00;8.67;;;;;6.26;59.37;100850.25;4971038;28;45458;-74
2022/01/05 08:51:26;;;;;;;;;10.00;10.00;;;;;6.33;59.30;100858.53;4970210;28;47172;-74
2022/01/05 08:53:51;;;;;;;;;12.33;11.67;;;;;6.59;59.91;100843.78;4970391;28;45793;-79
2022/01/05 08:56:17;;;;;;;;;4.67;4.67;;;;;7.13;57.88;100857.31;4957207;28;45568;-75
2022/01/05 08:58:42;;;;;;;;;5.00;5.00;;;;;7.79;56.61;100851.22;4951403;28;47882;-77
2022/01/05 09:01:11;;;;;;;;;5.00;4.00;;;;;8.41;54.70;100860.00;4966643;28;45870;-73
2022/01/05 09:03:36;;;;;;;;;3.33;2.00;;;;;9.01;52.70;100858.81;4960626;28;45434;-73
2022/01/05 09:06:04;;;;;;;;;6.00;3.00;;;;;9.61;51.85;100855.72;4971158;28;45777;-79
2022/01/05 09:08:29;;;;;;;;;2.33;2.33;;;;;10.10;50.12;100861.28;4972850;28;45438;-78
2022/01/05 09:10:55;;;;;;;;;3.67;3.00;;;;;10.63;48.80;100867.00;4952609;28;45390;-79
2022/01/05 09:13:21;;;;;;;;;2.00;1.67;;;;;11.07;47.29;100868.34;4974002;28;45517;-79
2022/01/05 09:15:46;;;;;;;;;2.00;2.00;;;;;11.57;46.65;100872.59;4953604;28;45692;-73
2022/01/05 09:18:14;;;;;;;;;6.33;3.33;;;;;11.90;45.55;100879.94;4972032;28;47366;-75
2022/01/05 09:20:39;;;;;;;;;3.00;2.00;;;;;12.32;44.89;100869.47;4980050;28;45783;-74
2022/01/05 09:23:04;;;;;;;;;3.33;3.33;;;;;12.73;44.64;100872.91;4970041;28;46387;-73
2022/01/05 09:25:30;;;;;;;;;6.67;2.67;;;;;13.04;42.86;100867.41;4970800;28;45834;-79
2022/01/05 09:27:56;;;;;;;;;3.00;2.00;;;;;13.37;42.17;100874.63;4971695;28;46786;-74
2022/01/05 09:30:22;;;;;;;;;4.33;4.33;;;;;13.53;42.41;100862.22;4973109;28;45438;-78
2022/01/05 09:32:48;;;;;;;;;3.00;2.33;;;;;13.87;41.95;100870.97;4952798;28;45700;-72
2022/01/05 09:35:16;;;;;;;;;3.00;3.00;;;;;14.12;40.39;100881.97;4954531;28;45532;-74
2022/01/05 09:43:06;;;;;;;;;2.67;2.67;;;;;14.91;39.55;100896.91;4961908;28;45735;-79
2022/01/05 09:45:35;;;;;;;;;4.67;3.00;;;;;15.21;38.82;100909.88;4956515;28;45631;-79
2022/01/05 09:48:37;;;;;;;;;2.67;1.67;;;;;15.38;38.69;100904.53;4968498;28;46315;-74
2022/01/05 09:51:06;;;;;;;;;6.33;5.33;;;;;15.59;37.86;100915.00;4974353;28;45822;-75
2022/01/05 09:53:33;;;;;;;;;2.00;2.00;;;;;15.77;37.84;100913.22;4968533;28;45875;-75
2022/01/05 09:56:00;;;;;;;;;2.33;2.33;;;;;15.84;37.53;100916.75;4973345;28;45402;-81
2022/01/05 09:58:28;;;;;;;;;7.00;2.33;;;;;15.97;36.64;100923.97;4975065;28;45879;-80
2022/01/05 10:00:54;;;;;;;;;5.33;4.00;;;;;16.22;37.96;100932.00;4974868;28;46117;-79
2022/01/05 10:03:22;;;;;;;;;3.33;3.33;;;;;16.42;36.87;100926.94;4944546;28;45952;-80
2022/01/05 10:05:48;;;;;;;;;4.33;3.00;;;;;16.57;36.42;100926.44;4974935;28;45474;-75
2022/01/05 10:08:13;;;;;;;;;1.33;1.33;;;;;16.48;35.77;100929.81;4973888;28;45476;-77
2022/01/05 10:10:40;;;;;;;;;3.00;1.67;;;;;16.47;36.14;100939.22;4973582;28;45505;-80
2022/01/05 10:13:06;;;;;;;;;4.00;3.00;;;;;16.60;35.75;100930.63;4958494;28;45482;-80
2022/01/05 10:15:32;;;;;;;;;3.33;2.33;;;;;16.30;36.36;100930.81;4976318;28;45681;-75
2022/01/05 10:18:21;;;;;;;;;1.67;1.67;;;;;15.87;36.77;100933.72;4971114;28;47105;-75
2022/01/05 10:20:57;;;;;;;;;4.00;1.00;;;;;15.56;37.12;100945.91;4996173;28;45733;-78
2022/01/05 10:23:35;;;;;;;;;3.33;1.33;;;;;15.24;37.56;100946.19;4966022;28;45486;-75
2022/01/05 10:26:39;;;;;;;;;5.33;2.33;;;;;15.26;37.68;100949.53;4972700;28;45739;-78
2022/01/05 10:29:14;;;;;;;;;49.67;37.33;;;;;15.27;37.93;100950.38;4933603;28;46039;-75
2022/01/05 10:31:41;;;;;;;;;10.33;8.67;;;;;15.32;37.35;100951.34;4964417;28;45528;-79
2022/01/05 10:34:18;;;;;;;;;30.00;26.33;;;;;15.29;37.66;100949.06;4973193;28;45738;-81
2022/01/05 10:36:49;;;;;;;;;3.00;3.00;;;;;15.21;38.12;100948.56;4972270;28;45798;-76
2022/01/05 10:39:20;;;;;;;;;3.00;3.00;;;;;15.11;37.04;100949.97;4968745;28;46035;-81
2022/01/05 10:41:46;;;;;;;;;3.33;3.33;;;;;14.89;37.96;100940.50;4974458;28;45572;-75
2022/01/05 10:44:17;;;;;;;;;4.00;2.67;;;;;14.60;38.82;100954.84;4976437;28;45610;-80
2022/01/05 10:46:54;;;;;;;;;2.67;2.67;;;;;14.27;39.16;100966.25;4966707;28;45397;-79
2022/01/05 10:49:35;;;;;;;;;1.33;1.33;;;;;13.74;40.48;100973.09;4964344;28;45795;-77
2022/01/05 10:52:23;;;;;;;;;2.33;1.33;;;;;13.64;40.92;100978.25;4972031;28;45785;-75
2022/01/05 10:54:50;;;;;;;;;6.33;2.33;;;;;13.66;41.00;100965.13;4958672;28;45909;-80
2022/01/05 10:57:17;;;;;;;;;2.00;2.00;;;;;13.56;40.48;100968.34;4975755;28;45689;-79
2022/01/05 10:59:45;;;;;;;;;3.00;2.33;;;;;13.49;41.48;100962.03;4973439;28;45817;-75
2022/01/05 11:02:24;;;;;;;;;2.00;2.00;;;;;13.46;41.29;100960.59;4972965;28;45806;-75
2022/01/05 11:04:56;;;;;;;;;3.67;3.67;;;;;13.41;40.57;100965.91;4972083;28;45488;-76
2022/01/05 11:07:23;;;;;;;;;3.00;3.00;;;;;13.33;41.01;100972.50;4973340;28;45440;-79
2022/01/05 11:09:59;;;;;;;;;2.00;2.00;;;;;13.26;40.57;100977.22;4976662;28;45645;-77
2022/01/05 11:12:55;;;;;;;;;5.67;3.67;;;;;13.21;41.03;100979.78;4967097;28;45498;-81
2022/01/05 11:15:35;;;;;;;;;4.00;4.00;;;;;13.20;41.87;100989.97;4978964;28;45762;-76
2022/01/05 11:18:21;;;;;;;;;3.33;2.00;;;;;13.19;42.46;100977.25;4980718;28;47050;-74
2022/01/05 11:20:51;;;;;;;;;3.00;3.00;;;;;13.14;42.30;100979.81;4987695;28;46180;-79
2022/01/05 11:23:22;;;;;;;;;4.00;2.67;;;;;12.99;41.66;100971.84;4960573;28;45667;-74
2022/01/05 11:25:49;;;;;;;;;7.00;3.00;;;;;12.95;43.14;100973.38;4977441;28;45533;-73
2022/01/05 11:28:23;;;;;;;;;4.33;3.33;;;;;12.83;42.51;100978.72;4979517;28;45820;-79
2022/01/05 11:30:51;;;;;;;;;2.67;2.67;;;;;12.84;42.58;100985.91;4975368;28;45809;-76
2022/01/05 11:33:17;;;;;;;;;3.67;3.67;;;;;12.76;43.02;100977.88;4971621;28;45740;-73
2022/01/05 11:35:43;;;;;;;;;3.33;3.00;;;;;12.69;41.86;100977.06;4972573;28;45472;-75
2022/01/05 11:38:11;;;;;;;;;4.33;3.00;;;;;12.63;42.64;100981.53;4969237;28;46119;-79
2022/01/05 11:40:40;;;;;;;;;3.67;3.00;;;;;12.49;43.22;100977.97;4970932;28;46824;-73
2022/01/05 11:43:16;;;;;;;;;4.00;3.00;;;;;12.49;44.08;100972.47;4973710;28;45540;-76
2022/01/05 11:45:47;;;;;;;;;16.33;14.00;;;;;12.46;43.15;100967.41;4986910;28;45825;-73